sensor_id;sensor_type;location;lat;lon;timestamp;P1;durP1;ratioP1;P2;durP2;ratioP2
5199;SDS011;2619;47.868;11.892;2022-12-18T00:01:59;57.20;;;20.77;;
5199;SDS011;2619;47.868;11.892;2022-12-18T00:04:24;52.83;;;22.10;;
5199;SDS011;2619;47.868;11.892;2022-12-18T00:06:51;50.77;;;20.30;;
5199;SDS011;2619;47.868;11.892;2022-12-18T00:09:17;54.13;;;23.90;;
5199;SDS011;2619;47.868;11.892;2022-12-18T00:11:44;55.20;;;21.57;;
5199;SDS011;2619;47.868;11.892;2022-12-18T00:14:11;65.20;;;22.90;;
5199;SDS011;2619;47.868;11.892;2022-12-18T00:16:37;56.60;;;21.17;;
5199;SDS011;2619;47.868;11.892;2022-12-18T00:19:04;52.90;;;20.80;;
5199;SDS011;2619;47.868;11.892;2022-12-18T00:21:31;59.30;;;22.40;;
5199;SDS011;2619;47.868;11.892;2022-12-18T00:23:57;59.83;;;22.43;;
5199;SDS011;2619;47.868;11.892;2022-12-18T00:26:25;58.23;;;20.73;;
5199;SDS011;2619;47.868;11.892;2022-12-18T00:28:52;55.03;;;19.97;;
5199;SDS011;2619;47.868;11.892;2022-12-18T00:31:22;55.97;;;21.20;;
5199;SDS011;2619;47.868;11.892;2022-12-18T00:33:48;71.23;;;21.20;;
5199;SDS011;2619;47.868;11.892;2022-12-18T00:36:19;57.77;;;21.63;;
5199;SDS011;2619;47.868;11.892;2022-12-18T00:38:46;44.03;;;18.67;;
5199;SDS011;2619;47.868;11.892;2022-12-18T00:41:13;54.00;;;21.20;;
5199;SDS011;2619;47.868;11.892;2022-12-18T00:44:00;59.73;;;20.33;;
5199;SDS011;2619;47.868;11.892;2022-12-18T00:46:26;58.23;;;20.90;;
5199;SDS011;2619;47.868;11.892;2022-12-18T00:48:51;69.23;;;24.90;;
5199;SDS011;2619;47.868;11.892;2022-12-18T00:51:17;60.43;;;22.50;;
5199;SDS011;2619;47.868;11.892;2022-12-18T00:53:42;57.40;;;23.73;;
5199;SDS011;2619;47.868;11.892;2022-12-18T00:56:08;48.10;;;20.73;;
5199;SDS011;2619;47.868;11.892;2022-12-18T00:58:35;53.60;;;20.70;;
5199;SDS011;2619;47.868;11.892;2022-12-18T01:01:00;39.37;;;17.57;;
5199;SDS011;2619;47.868;11.892;2022-12-18T01:03:26;49.37;;;19.60;;
5199;SDS011;2619;47.868;11.892;2022-12-18T01:05:51;45.60;;;18.37;;
5199;SDS011;2619;47.868;11.892;2022-12-18T01:08:17;50.40;;;20.70;;
5199;SDS011;2619;47.868;11.892;2022-12-18T01:10:42;48.27;;;21.70;;
5199;SDS011;2619;47.868;11.892;2022-12-18T01:13:08;47.33;;;20.40;;
5199;SDS011;2619;47.868;11.892;2022-12-18T01:15:34;48.33;;;18.93;;
5199;SDS011;2619;47.868;11.892;2022-12-18T01:17:59;47.70;;;21.10;;
5199;SDS011;2619;47.868;11.892;2022-12-18T01:20:25;48.53;;;18.10;;
5199;SDS011;2619;47.868;11.892;2022-12-18T01:22:50;50.73;;;18.80;;
5199;SDS011;2619;47.868;11.892;2022-12-18T01:25:16;44.90;;;18.60;;
5199;SDS011;2619;47.868;11.892;2022-12-18T01:27:42;42.43;;;16.63;;
5199;SDS011;2619;47.868;11.892;2022-12-18T01:30:08;43.33;;;17.93;;
5199;SDS011;2619;47.868;11.892;2022-12-18T01:32:34;33.13;;;16.23;;
5199;SDS011;2619;47.868;11.892;2022-12-18T01:34:59;40.63;;;19.50;;
5199;SDS011;2619;47.868;11.892;2022-12-18T01:37:25;37.20;;;16.43;;
5199;SDS011;2619;47.868;11.892;2022-12-18T01:39:51;37.70;;;16.43;;
5199;SDS011;2619;47.868;11.892;2022-12-18T01:42:19;44.97;;;17.97;;
5199;SDS011;2619;47.868;11.892;2022-12-18T01:50:06;39.20;;;16.17;;
5199;SDS011;2619;47.868;11.892;2022-12-18T01:52:34;40.97;;;15.17;;
5199;SDS011;2619;47.868;11.892;2022-12-18T01:55:02;37.30;;;16.97;;
5199;SDS011;2619;47.868;11.892;2022-12-18T01:57:29;32.37;;;15.13;;
5199;SDS011;2619;47.868;11.892;2022-12-18T01:59:57;36.43;;;15.60;;
5199;SDS011;2619;47.868;11.892;2022-12-18T02:02:28;39.27;;;15.83;;
5199;SDS011;2619;47.868;11.892;2022-12-18T02:04:55;38.50;;;15.47;;
5199;SDS011;2619;47.868;11.892;2022-12-18T02:10:12;30.73;;;16.10;;
5199;SDS011;2619;47.868;11.892;2022-12-18T02:13:03;32.17;;;13.60;;
5199;SDS011;2619;47.868;11.892;2022-12-18T02:18:24;28.47;;;15.83;;
5199;SDS011;2619;47.868;11.892;2022-12-18T02:20:59;40.87;;;17.10;;
5199;SDS011;2619;47.868;11.892;2022-12-18T02:31:27;41.73;;;15.40;;
5199;SDS011;2619;47.868;11.892;2022-12-18T02:33:56;35.70;;;17.00;;
5199;SDS011;2619;47.868;11.892;2022-12-18T02:36:26;35.83;;;14.53;;
5199;SDS011;2619;47.868;11.892;2022-12-18T02:38:53;36.33;;;14.97;;
5199;SDS011;2619;47.868;11.892;2022-12-18T02:41:20;40.17;;;16.17;;
5199;SDS011;2619;47.868;11.892;2022-12-18T02:43:55;42.40;;;17.00;;
5199;SDS011;2619;47.868;11.892;2022-12-18T02:46:30;47.27;;;16.87;;
5199;SDS011;2619;47.868;11.892;2022-12-18T02:49:00;35.33;;;15.70;;
5199;SDS011;2619;47.868;11.892;2022-12-18T02:54:17;32.30;;;15.40;;
5199;SDS011;2619;47.868;11.892;2022-12-18T02:57:11;32.53;;;13.70;;
5199;SDS011;2619;47.868;11.892;2022-12-18T02:59:49;33.17;;;15.10;;
5199;SDS011;2619;47.868;11.892;2022-12-18T03:02:57;36.73;;;15.97;;
5199;SDS011;2619;47.868;11.892;2022-12-18T03:05:26;32.43;;;14.77;;
5199;SDS011;2619;47.868;11.892;2022-12-18T03:08:03;36.40;;;17.07;;
5199;SDS011;2619;47.868;11.892;2022-12-18T03:10:36;29.40;;;14.40;;
5199;SDS011;2619;47.868;11.892;2022-12-18T03:13:08;29.40;;;14.37;;
5199;SDS011;2619;47.868;11.892;2022-12-18T03:15:38;33.90;;;14.87;;
5199;SDS011;2619;47.868;11.892;2022-12-18T03:18:19;29.90;;;13.60;;
5199;SDS011;2619;47.868;11.892;2022-12-18T03:20:49;40.87;;;16.17;;
5199;SDS011;2619;47.868;11.892;2022-12-18T03:23:19;30.73;;;14.17;;
5199;SDS011;2619;47.868;11.892;2022-12-18T03:25:50;35.20;;;18.30;;
5199;SDS011;2619;47.868;11.892;2022-12-18T03:28:21;33.03;;;14.50;;
5199;SDS011;2619;47.868;11.892;2022-12-18T03:30:49;33.87;;;14.07;;
5199;SDS011;2619;47.868;11.892;2022-12-18T03:33:30;34.00;;;14.70;;
5199;SDS011;2619;47.868;11.892;2022-12-18T03:36:02;32.70;;;14.23;;
5199;SDS011;2619;47.868;11.892;2022-12-18T03:38:28;33.30;;;16.30;;
5199;SDS011;2619;47.868;11.892;2022-12-18T03:49:13;32.83;;;14.70;;
5199;SDS011;2619;47.868;11.892;2022-12-18T03:51:52;38.93;;;17.07;;
5199;SDS011;2619;47.868;11.892;2022-12-18T03:54:24;38.53;;;15.93;;
5199;SDS011;2619;47.868;11.892;2022-12-18T03:56:59;35.20;;;16.20;;
5199;SDS011;2619;47.868;11.892;2022-12-18T03:59:31;38.77;;;18.20;;
5199;SDS011;2619;47.868;11.892;2022-12-18T04:01:59;34.93;;;15.33;;
5199;SDS011;2619;47.868;11.892;2022-12-18T04:04:26;37.50;;;15.47;;
5199;SDS011;2619;47.868;11.892;2022-12-18T04:06:53;41.10;;;15.73;;
5199;SDS011;2619;47.868;11.892;2022-12-18T04:09:19;36.27;;;17.60;;
5199;SDS011;2619;47.868;11.892;2022-12-18T04:11:46;48.60;;;18.87;;
5199;SDS011;2619;47.868;11.892;2022-12-18T04:14:12;32.00;;;14.17;;
5199;SDS011;2619;47.868;11.892;2022-12-18T04:16:39;29.60;;;14.20;;
5199;SDS011;2619;47.868;11.892;2022-12-18T04:19:05;27.37;;;12.50;;
5199;SDS011;2619;47.868;11.892;2022-12-18T04:21:30;26.87;;;12.57;;
5199;SDS011;2619;47.868;11.892;2022-12-18T04:23:56;33.33;;;16.27;;
5199;SDS011;2619;47.868;11.892;2022-12-18T04:26:22;28.43;;;14.97;;
5199;SDS011;2619;47.868;11.892;2022-12-18T04:28:47;32.43;;;14.40;;
5199;SDS011;2619;47.868;11.892;2022-12-18T04:31:13;32.17;;;14.00;;
5199;SDS011;2619;47.868;11.892;2022-12-18T04:33:38;37.87;;;15.30;;
5199;SDS011;2619;47.868;11.892;2022-12-18T04:36:04;38.23;;;14.97;;
5199;SDS011;2619;47.868;11.892;2022-12-18T04:38:30;32.30;;;13.60;;
5199;SDS011;2619;47.868;11.892;2022-12-18T04:40:55;39.07;;;15.47;;
5199;SDS011;2619;47.868;11.892;2022-12-18T04:43:21;34.97;;;14.77;;
5199;SDS011;2619;47.868;11.892;2022-12-18T04:45:47;32.40;;;15.10;;
5199;SDS011;2619;47.868;11.892;2022-12-18T04:48:12;30.93;;;14.40;;
5199;SDS011;2619;47.868;11.892;2022-12-18T04:50:38;24.00;;;10.77;;
5199;SDS011;2619;47.868;11.892;2022-12-18T04:53:03;26.60;;;13.47;;
5199;SDS011;2619;47.868;11.892;2022-12-18T04:55:29;28.17;;;12.00;;
5199;SDS011;2619;47.868;11.892;2022-12-18T04:57:54;35.37;;;14.87;;
5199;SDS011;2619;47.868;11.892;2022-12-18T05:00:20;37.03;;;13.57;;
5199;SDS011;2619;47.868;11.892;2022-12-18T05:02:46;38.03;;;15.97;;
5199;SDS011;2619;47.868;11.892;2022-12-18T05:05:12;38.33;;;16.93;;
5199;SDS011;2619;47.868;11.892;2022-12-18T05:07:38;34.77;;;16.83;;
5199;SDS011;2619;47.868;11.892;2022-12-18T05:10:03;40.63;;;16.77;;
5199;SDS011;2619;47.868;11.892;2022-12-18T05:12:32;39.10;;;17.73;;
5199;SDS011;2619;47.868;11.892;2022-12-18T05:14:58;34.10;;;15.83;;
5199;SDS011;2619;47.868;11.892;2022-12-18T05:17:23;43.43;;;16.70;;
5199;SDS011;2619;47.868;11.892;2022-12-18T05:19:49;45.20;;;17.30;;
5199;SDS011;2619;47.868;11.892;2022-12-18T05:22:15;37.43;;;16.20;;
5199;SDS011;2619;47.868;11.892;2022-12-18T05:24:41;47.07;;;18.70;;
5199;SDS011;2619;47.868;11.892;2022-12-18T05:27:06;39.97;;;18.17;;
5199;SDS011;2619;47.868;11.892;2022-12-18T05:29:32;38.50;;;16.60;;
5199;SDS011;2619;47.868;11.892;2022-12-18T05:31:57;28.90;;;13.30;;
5199;SDS011;2619;47.868;11.892;2022-12-18T05:34:23;39.90;;;17.40;;
5199;SDS011;2619;47.868;11.892;2022-12-18T05:36:48;34.40;;;14.37;;
5199;SDS011;2619;47.868;11.892;2022-12-18T05:39:14;37.27;;;16.93;;
5199;SDS011;2619;47.868;11.892;2022-12-18T05:41:40;37.93;;;15.30;;
5199;SDS011;2619;47.868;11.892;2022-12-18T05:44:05;32.27;;;12.57;;
5199;SDS011;2619;47.868;11.892;2022-12-18T05:46:31;24.67;;;11.97;;
5199;SDS011;2619;47.868;11.892;2022-12-18T05:48:59;25.27;;;12.53;;
5199;SDS011;2619;47.868;11.892;2022-12-18T05:51:25;32.67;;;13.90;;
5199;SDS011;2619;47.868;11.892;2022-12-18T05:53:51;33.40;;;13.97;;
5199;SDS011;2619;47.868;11.892;2022-12-18T05:56:18;26.90;;;13.53;;
5199;SDS011;2619;47.868;11.892;2022-12-18T05:58:45;25.30;;;12.83;;
5199;SDS011;2619;47.868;11.892;2022-12-18T06:01:13;35.03;;;17.20;;
5199;SDS011;2619;47.868;11.892;2022-12-18T06:03:40;33.70;;;15.13;;
5199;SDS011;2619;47.868;11.892;2022-12-18T06:06:16;33.17;;;14.83;;
5199;SDS011;2619;47.868;11.892;2022-12-18T06:08:44;39.77;;;14.80;;
5199;SDS011;2619;47.868;11.892;2022-12-18T06:11:11;38.70;;;15.27;;
5199;SDS011;2619;47.868;11.892;2022-12-18T06:13:36;37.37;;;15.57;;
5199;SDS011;2619;47.868;11.892;2022-12-18T06:16:06;37.47;;;16.50;;
5199;SDS011;2619;47.868;11.892;2022-12-18T06:18:33;33.00;;;15.63;;
5199;SDS011;2619;47.868;11.892;2022-12-18T06:20:59;32.80;;;13.73;;
5199;SDS011;2619;47.868;11.892;2022-12-18T06:23:25;41.53;;;15.60;;
5199;SDS011;2619;47.868;11.892;2022-12-18T06:25:51;42.93;;;15.33;;
5199;SDS011;2619;47.868;11.892;2022-12-18T06:28:16;42.03;;;16.37;;
5199;SDS011;2619;47.868;11.892;2022-12-18T06:30:45;42.70;;;17.20;;
5199;SDS011;2619;47.868;11.892;2022-12-18T06:33:13;38.73;;;16.53;;
5199;SDS011;2619;47.868;11.892;2022-12-18T06:35:39;38.57;;;16.93;;
5199;SDS011;2619;47.868;11.892;2022-12-18T06:38:05;38.43;;;16.23;;
5199;SDS011;2619;47.868;11.892;2022-12-18T06:40:30;34.40;;;13.93;;
5199;SDS011;2619;47.868;11.892;2022-12-18T06:42:56;46.33;;;17.83;;
5199;SDS011;2619;47.868;11.892;2022-12-18T06:45:22;34.60;;;14.70;;
5199;SDS011;2619;47.868;11.892;2022-12-18T06:47:47;37.53;;;16.93;;
5199;SDS011;2619;47.868;11.892;2022-12-18T06:50:13;30.60;;;16.63;;
5199;SDS011;2619;47.868;11.892;2022-12-18T06:52:39;39.00;;;15.57;;
5199;SDS011;2619;47.868;11.892;2022-12-18T06:55:05;37.90;;;14.40;;
5199;SDS011;2619;47.868;11.892;2022-12-18T06:57:34;39.40;;;16.57;;
5199;SDS011;2619;47.868;11.892;2022-12-18T07:00:00;37.97;;;12.87;;
5199;SDS011;2619;47.868;11.892;2022-12-18T07:02:26;42.03;;;15.87;;
5199;SDS011;2619;47.868;11.892;2022-12-18T07:04:51;35.87;;;15.70;;
5199;SDS011;2619;47.868;11.892;2022-12-18T07:07:17;37.03;;;14.40;;
5199;SDS011;2619;47.868;11.892;2022-12-18T07:09:42;35.30;;;14.57;;
5199;SDS011;2619;47.868;11.892;2022-12-18T07:12:08;30.23;;;12.40;;
5199;SDS011;2619;47.868;11.892;2022-12-18T07:14:33;45.57;;;15.07;;
5199;SDS011;2619;47.868;11.892;2022-12-18T07:16:59;31.10;;;14.80;;
5199;SDS011;2619;47.868;11.892;2022-12-18T07:19:25;33.47;;;13.57;;
5199;SDS011;2619;47.868;11.892;2022-12-18T07:21:50;40.57;;;15.37;;
5199;SDS011;2619;47.868;11.892;2022-12-18T07:24:16;28.60;;;12.53;;
5199;SDS011;2619;47.868;11.892;2022-12-18T07:26:42;34.97;;;14.83;;
5199;SDS011;2619;47.868;11.892;2022-12-18T07:29:07;32.77;;;13.43;;
5199;SDS011;2619;47.868;11.892;2022-12-18T07:31:33;42.93;;;14.33;;
5199;SDS011;2619;47.868;11.892;2022-12-18T07:33:58;39.87;;;14.57;;
5199;SDS011;2619;47.868;11.892;2022-12-18T07:36:24;36.47;;;14.13;;
5199;SDS011;2619;47.868;11.892;2022-12-18T07:38:50;30.57;;;12.73;;
5199;SDS011;2619;47.868;11.892;2022-12-18T07:41:19;29.33;;;12.80;;
5199;SDS011;2619;47.868;11.892;2022-12-18T07:43:44;32.23;;;13.90;;
5199;SDS011;2619;47.868;11.892;2022-12-18T07:46:11;37.13;;;15.30;;
5199;SDS011;2619;47.868;11.892;2022-12-18T07:48:39;38.00;;;14.90;;
5199;SDS011;2619;47.868;11.892;2022-12-18T07:51:06;36.60;;;14.97;;
5199;SDS011;2619;47.868;11.892;2022-12-18T07:53:32;28.57;;;13.60;;
5199;SDS011;2619;47.868;11.892;2022-12-18T07:56:00;25.93;;;13.50;;
5199;SDS011;2619;47.868;11.892;2022-12-18T07:58:30;39.17;;;13.60;;
5199;SDS011;2619;47.868;11.892;2022-12-18T08:01:08;24.57;;;11.43;;
5199;SDS011;2619;47.868;11.892;2022-12-18T08:03:35;29.53;;;12.30;;
5199;SDS011;2619;47.868;11.892;2022-12-18T08:06:02;35.37;;;14.10;;
5199;SDS011;2619;47.868;11.892;2022-12-18T08:08:29;34.10;;;14.30;;
5199;SDS011;2619;47.868;11.892;2022-12-18T08:10:55;38.00;;;16.63;;
5199;SDS011;2619;47.868;11.892;2022-12-18T08:13:23;41.83;;;15.70;;
5199;SDS011;2619;47.868;11.892;2022-12-18T08:16:23;30.37;;;14.57;;
5199;SDS011;2619;47.868;11.892;2022-12-18T08:18:42;31.20;;;15.17;;
5199;SDS011;2619;47.868;11.892;2022-12-18T08:21:11;27.80;;;12.90;;
5199;SDS011;2619;47.868;11.892;2022-12-18T08:23:42;28.03;;;12.10;;
5199;SDS011;2619;47.868;11.892;2022-12-18T08:26:08;30.47;;;13.47;;
5199;SDS011;2619;47.868;11.892;2022-12-18T08:28:34;30.63;;;13.17;;
5199;SDS011;2619;47.868;11.892;2022-12-18T08:31:00;25.93;;;12.73;;
5199;SDS011;2619;47.868;11.892;2022-12-18T08:33:26;34.07;;;14.03;;
5199;SDS011;2619;47.868;11.892;2022-12-18T08:35:52;31.00;;;13.43;;
5199;SDS011;2619;47.868;11.892;2022-12-18T08:38:18;27.93;;;12.13;;
5199;SDS011;2619;47.868;11.892;2022-12-18T08:40:44;33.80;;;14.67;;
5199;SDS011;2619;47.868;11.892;2022-12-18T08:43:09;30.67;;;11.53;;
5199;SDS011;2619;47.868;11.892;2022-12-18T08:46:07;34.70;;;12.13;;
5199;SDS011;2619;47.868;11.892;2022-12-18T08:48:33;28.17;;;12.50;;
5199;SDS011;2619;47.868;11.892;2022-12-18T08:50:59;29.33;;;14.00;;
5199;SDS011;2619;47.868;11.892;2022-12-18T08:53:25;32.13;;;14.10;;
5199;SDS011;2619;47.868;11.892;2022-12-18T08:55:52;35.63;;;15.20;;
5199;SDS011;2619;47.868;11.892;2022-12-18T08:58:18;31.80;;;13.30;;
5199;SDS011;2619;47.868;11.892;2022-12-18T09:00:43;31.73;;;12.20;;
5199;SDS011;2619;47.868;11.892;2022-12-18T09:03:12;34.10;;;13.77;;
5199;SDS011;2619;47.868;11.892;2022-12-18T09:05:39;40.43;;;15.33;;
5199;SDS011;2619;47.868;11.892;2022-12-18T09:08:05;36.47;;;13.93;;
5199;SDS011;2619;47.868;11.892;2022-12-18T09:10:31;30.83;;;14.20;;
5199;SDS011;2619;47.868;11.892;2022-12-18T09:12:57;36.47;;;14.93;;
5199;SDS011;2619;47.868;11.892;2022-12-18T09:15:22;34.60;;;15.20;;
5199;SDS011;2619;47.868;11.892;2022-12-18T09:17:48;29.83;;;12.73;;
5199;SDS011;2619;47.868;11.892;2022-12-18T09:20:15;35.97;;;15.43;;
5199;SDS011;2619;47.868;11.892;2022-12-18T09:22:41;26.17;;;13.73;;
5199;SDS011;2619;47.868;11.892;2022-12-18T09:25:07;33.93;;;14.40;;
5199;SDS011;2619;47.868;11.892;2022-12-18T09:27:33;37.70;;;14.20;;
5199;SDS011;2619;47.868;11.892;2022-12-18T09:29:59;33.00;;;13.37;;
5199;SDS011;2619;47.868;11.892;2022-12-18T09:32:24;36.73;;;14.23;;
5199;SDS011;2619;47.868;11.892;2022-12-18T09:34:50;36.57;;;15.37;;
5199;SDS011;2619;47.868;11.892;2022-12-18T09:37:16;35.10;;;14.60;;
5199;SDS011;2619;47.868;11.892;2022-12-18T09:39:41;30.83;;;13.60;;
5199;SDS011;2619;47.868;11.892;2022-12-18T09:42:09;35.37;;;13.00;;
5199;SDS011;2619;47.868;11.892;2022-12-18T09:44:43;34.03;;;15.07;;
5199;SDS011;2619;47.868;11.892;2022-12-18T09:49:51;29.70;;;15.07;;
5199;SDS011;2619;47.868;11.892;2022-12-18T09:52:32;37.10;;;14.50;;
5199;SDS011;2619;47.868;11.892;2022-12-18T09:57:53;25.00;;;14.17;;
5199;SDS011;2619;47.868;11.892;2022-12-18T10:00:23;25.43;;;12.67;;
5199;SDS011;2619;47.868;11.892;2022-12-18T10:02:51;33.73;;;16.23;;
5199;SDS011;2619;47.868;11.892;2022-12-18T10:05:29;31.87;;;12.50;;
5199;SDS011;2619;47.868;11.892;2022-12-18T10:08:37;36.90;;;13.53;;
5199;SDS011;2619;47.868;11.892;2022-12-18T10:11:21;28.33;;;12.97;;
5199;SDS011;2619;47.868;11.892;2022-12-18T10:14:20;27.20;;;12.40;;
5199;SDS011;2619;47.868;11.892;2022-12-18T10:27:57;28.47;;;12.00;;
5199;SDS011;2619;47.868;11.892;2022-12-18T10:30:32;29.00;;;12.27;;
5199;SDS011;2619;47.868;11.892;2022-12-18T10:33:00;31.33;;;14.03;;
5199;SDS011;2619;47.868;11.892;2022-12-18T10:35:27;30.07;;;11.60;;
5199;SDS011;2619;47.868;11.892;2022-12-18T10:38:06;24.90;;;11.67;;
5199;SDS011;2619;47.868;11.892;2022-12-18T10:43:21;29.03;;;13.17;;
5199;SDS011;2619;47.868;11.892;2022-12-18T10:48:36;27.70;;;12.87;;
5199;SDS011;2619;47.868;11.892;2022-12-18T10:51:19;30.27;;;13.20;;
5199;SDS011;2619;47.868;11.892;2022-12-18T10:53:50;27.00;;;13.10;;
5199;SDS011;2619;47.868;11.892;2022-12-18T10:56:21;29.17;;;12.50;;
5199;SDS011;2619;47.868;11.892;2022-12-18T10:58:56;27.97;;;12.40;;
5199;SDS011;2619;47.868;11.892;2022-12-18T11:01:27;29.23;;;13.17;;
5199;SDS011;2619;47.868;11.892;2022-12-18T11:06:20;32.93;;;12.90;;
5199;SDS011;2619;47.868;11.892;2022-12-18T11:09:05;32.27;;;12.87;;
5199;SDS011;2619;47.868;11.892;2022-12-18T11:11:48;30.57;;;13.63;;
5199;SDS011;2619;47.868;11.892;2022-12-18T11:14:29;31.20;;;13.33;;
5199;SDS011;2619;47.868;11.892;2022-12-18T11:17:16;28.43;;;12.40;;
5199;SDS011;2619;47.868;11.892;2022-12-18T11:19:55;28.33;;;12.10;;
5199;SDS011;2619;47.868;11.892;2022-12-18T11:22:26;30.47;;;12.63;;
5199;SDS011;2619;47.868;11.892;2022-12-18T11:24:57;33.60;;;13.20;;
5199;SDS011;2619;47.868;11.892;2022-12-18T11:27:25;28.50;;;12.57;;
5199;SDS011;2619;47.868;11.892;2022-12-18T11:29:53;30.90;;;12.97;;
5199;SDS011;2619;47.868;11.892;2022-12-18T11:32:46;27.30;;;12.20;;
5199;SDS011;2619;47.868;11.892;2022-12-18T11:35:19;35.57;;;14.80;;
5199;SDS011;2619;47.868;11.892;2022-12-18T11:37:59;29.90;;;12.50;;
5199;SDS011;2619;47.868;11.892;2022-12-18T11:40:37;31.30;;;13.10;;
5199;SDS011;2619;47.868;11.892;2022-12-18T11:43:17;20.80;;;11.90;;
5199;SDS011;2619;47.868;11.892;2022-12-18T11:45:54;31.60;;;13.17;;
5199;SDS011;2619;47.868;11.892;2022-12-18T11:48:30;25.93;;;13.13;;
5199;SDS011;2619;47.868;11.892;2022-12-18T11:51:02;35.87;;;14.70;;
5199;SDS011;2619;47.868;11.892;2022-12-18T11:53:34;25.70;;;13.07;;
5199;SDS011;2619;47.868;11.892;2022-12-18T11:56:11;30.30;;;12.80;;
5199;SDS011;2619;47.868;11.892;2022-12-18T12:15:43;26.27;;;12.57;;
5199;SDS011;2619;47.868;11.892;2022-12-18T12:21:12;28.73;;;12.80;;
5199;SDS011;2619;47.868;11.892;2022-12-18T12:23:58;25.77;;;11.93;;
5199;SDS011;2619;47.868;11.892;2022-12-18T12:36:56;27.77;;;13.00;;
5199;SDS011;2619;47.868;11.892;2022-12-18T12:39:38;29.47;;;13.30;;
5199;SDS011;2619;47.868;11.892;2022-12-18T12:42:15;28.57;;;11.07;;
5199;SDS011;2619;47.868;11.892;2022-12-18T12:45:14;26.73;;;12.03;;
5199;SDS011;2619;47.868;11.892;2022-12-18T12:47:46;27.10;;;12.13;;
5199;SDS011;2619;47.868;11.892;2022-12-18T12:50:15;28.93;;;12.60;;
5199;SDS011;2619;47.868;11.892;2022-12-18T12:52:47;24.03;;;12.13;;
5199;SDS011;2619;47.868;11.892;2022-12-18T12:55:18;31.70;;;13.57;;
5199;SDS011;2619;47.868;11.892;2022-12-18T12:57:53;28.50;;;12.20;;
5199;SDS011;2619;47.868;11.892;2022-12-18T13:00:24;34.73;;;13.07;;
5199;SDS011;2619;47.868;11.892;2022-12-18T13:07:56;30.77;;;14.30;;
5199;SDS011;2619;47.868;11.892;2022-12-18T13:10:31;27.67;;;12.53;;
5199;SDS011;2619;47.868;11.892;2022-12-18T13:13:09;25.83;;;12.73;;
5199;SDS011;2619;47.868;11.892;2022-12-18T13:15:41;26.83;;;11.90;;
5199;SDS011;2619;47.868;11.892;2022-12-18T13:20:35;26.17;;;12.03;;
5199;SDS011;2619;47.868;11.892;2022-12-18T13:28:56;29.50;;;13.53;;
5199;SDS011;2619;47.868;11.892;2022-12-18T13:40:25;29.00;;;12.87;;
5199;SDS011;2619;47.868;11.892;2022-12-18T13:43:15;30.57;;;12.87;;
5199;SDS011;2619;47.868;11.892;2022-12-18T13:48:18;26.93;;;12.10;;
5199;SDS011;2619;47.868;11.892;2022-12-18T13:50:53;30.90;;;11.63;;
5199;SDS011;2619;47.868;11.892;2022-12-18T13:53:24;28.63;;;11.20;;
5199;SDS011;2619;47.868;11.892;2022-12-18T13:55:53;26.97;;;12.53;;
5199;SDS011;2619;47.868;11.892;2022-12-18T13:58:19;29.27;;;12.53;;
5199;SDS011;2619;47.868;11.892;2022-12-18T14:00:44;25.03;;;11.80;;
5199;SDS011;2619;47.868;11.892;2022-12-18T14:05:54;31.13;;;14.63;;
5199;SDS011;2619;47.868;11.892;2022-12-18T14:08:23;26.80;;;12.80;;
5199;SDS011;2619;47.868;11.892;2022-12-18T14:10:52;24.33;;;12.43;;
5199;SDS011;2619;47.868;11.892;2022-12-18T14:13:26;38.30;;;15.37;;
5199;SDS011;2619;47.868;11.892;2022-12-18T14:15:55;34.97;;;13.90;;
5199;SDS011;2619;47.868;11.892;2022-12-18T14:20:53;28.47;;;12.33;;
5199;SDS011;2619;47.868;11.892;2022-12-18T14:23:35;27.60;;;11.83;;
5199;SDS011;2619;47.868;11.892;2022-12-18T14:26:22;28.97;;;13.87;;
5199;SDS011;2619;47.868;11.892;2022-12-18T14:28:50;32.93;;;14.47;;
5199;SDS011;2619;47.868;11.892;2022-12-18T14:31:23;35.63;;;14.77;;
5199;SDS011;2619;47.868;11.892;2022-12-18T14:33:51;30.70;;;12.30;;
5199;SDS011;2619;47.868;11.892;2022-12-18T14:36:18;35.47;;;14.57;;
5199;SDS011;2619;47.868;11.892;2022-12-18T14:38:52;27.23;;;12.80;;
5199;SDS011;2619;47.868;11.892;2022-12-18T14:41:22;23.00;;;11.60;;
5199;SDS011;2619;47.868;11.892;2022-12-18T14:43:50;26.77;;;12.60;;
5199;SDS011;2619;47.868;11.892;2022-12-18T14:48:57;36.63;;;12.07;;
5199;SDS011;2619;47.868;11.892;2022-12-18T14:51:27;31.40;;;13.17;;
5199;SDS011;2619;47.868;11.892;2022-12-18T14:53:56;32.80;;;12.73;;
5199;SDS011;2619;47.868;11.892;2022-12-18T14:56:27;29.17;;;14.27;;
5199;SDS011;2619;47.868;11.892;2022-12-18T15:01:22;23.50;;;11.57;;
5199;SDS011;2619;47.868;11.892;2022-12-18T15:03:53;32.10;;;14.57;;
5199;SDS011;2619;47.868;11.892;2022-12-18T15:06:36;28.97;;;11.77;;
5199;SDS011;2619;47.868;11.892;2022-12-18T15:09:23;31.77;;;13.27;;
5199;SDS011;2619;47.868;11.892;2022-12-18T15:11:54;43.90;;;13.70;;
5199;SDS011;2619;47.868;11.892;2022-12-18T15:14:30;35.10;;;13.73;;
5199;SDS011;2619;47.868;11.892;2022-12-18T15:17:03;31.87;;;14.83;;
5199;SDS011;2619;47.868;11.892;2022-12-18T15:19:39;30.70;;;14.77;;
5199;SDS011;2619;47.868;11.892;2022-12-18T15:22:26;31.63;;;14.43;;
5199;SDS011;2619;47.868;11.892;2022-12-18T15:24:53;28.80;;;14.20;;
5199;SDS011;2619;47.868;11.892;2022-12-18T15:27:27;27.07;;;12.77;;
5199;SDS011;2619;47.868;11.892;2022-12-18T15:32:33;31.33;;;13.90;;
5199;SDS011;2619;47.868;11.892;2022-12-18T15:37:39;27.13;;;12.93;;
5199;SDS011;2619;47.868;11.892;2022-12-18T15:40:05;38.07;;;15.43;;
5199;SDS011;2619;47.868;11.892;2022-12-18T15:42:33;29.90;;;14.00;;
5199;SDS011;2619;47.868;11.892;2022-12-18T15:45:17;40.83;;;16.00;;
5199;SDS011;2619;47.868;11.892;2022-12-18T15:47:43;30.33;;;14.00;;
5199;SDS011;2619;47.868;11.892;2022-12-18T15:50:09;33.00;;;14.97;;
5199;SDS011;2619;47.868;11.892;2022-12-18T15:52:41;35.80;;;15.23;;
5199;SDS011;2619;47.868;11.892;2022-12-18T15:55:16;28.43;;;15.40;;
5199;SDS011;2619;47.868;11.892;2022-12-18T15:58:03;28.67;;;12.97;;
5199;SDS011;2619;47.868;11.892;2022-12-18T16:00:29;35.13;;;15.77;;
5199;SDS011;2619;47.868;11.892;2022-12-18T16:02:56;35.57;;;13.70;;
5199;SDS011;2619;47.868;11.892;2022-12-18T16:05:21;35.67;;;13.23;;
5199;SDS011;2619;47.868;11.892;2022-12-18T16:07:49;31.80;;;14.83;;
5199;SDS011;2619;47.868;11.892;2022-12-18T16:10:14;33.20;;;15.40;;
5199;SDS011;2619;47.868;11.892;2022-12-18T16:12:40;38.60;;;16.17;;
5199;SDS011;2619;47.868;11.892;2022-12-18T16:15:07;46.43;;;19.50;;
5199;SDS011;2619;47.868;11.892;2022-12-18T16:17:33;43.97;;;17.40;;
5199;SDS011;2619;47.868;11.892;2022-12-18T16:19:58;56.33;;;23.07;;
5199;SDS011;2619;47.868;11.892;2022-12-18T16:22:25;41.03;;;20.13;;
5199;SDS011;2619;47.868;11.892;2022-12-18T16:24:53;44.50;;;18.70;;
5199;SDS011;2619;47.868;11.892;2022-12-18T16:27:19;36.93;;;16.37;;
5199;SDS011;2619;47.868;11.892;2022-12-18T16:29:46;43.37;;;16.00;;
5199;SDS011;2619;47.868;11.892;2022-12-18T16:32:16;39.70;;;17.33;;
5199;SDS011;2619;47.868;11.892;2022-12-18T16:34:43;34.13;;;16.53;;
5199;SDS011;2619;47.868;11.892;2022-12-18T16:37:11;36.73;;;15.17;;
5199;SDS011;2619;47.868;11.892;2022-12-18T16:39:38;32.43;;;15.70;;
5199;SDS011;2619;47.868;11.892;2022-12-18T16:42:06;36.13;;;15.90;;
5199;SDS011;2619;47.868;11.892;2022-12-18T16:44:39;40.83;;;16.77;;
5199;SDS011;2619;47.868;11.892;2022-12-18T16:47:05;41.07;;;15.87;;
5199;SDS011;2619;47.868;11.892;2022-12-18T16:49:31;38.20;;;15.90;;
5199;SDS011;2619;47.868;11.892;2022-12-18T16:51:57;38.70;;;15.93;;
5199;SDS011;2619;47.868;11.892;2022-12-18T16:54:26;37.23;;;14.77;;